sensor_id;sensor_type;location;lat;lon;timestamp;pressure;altitude;pressure_sealevel;temperature;humidity
70982;BME280;58640;51.320;9.456;2023-01-10T00:01:47;98751.78;;;4.53;94.26
70982;BME280;58640;51.320;9.456;2023-01-10T00:04:23;98756.81;;;4.56;94.41
70982;BME280;58640;51.320;9.456;2023-01-10T00:06:50;98757.34;;;4.59;94.43
70982;BME280;58640;51.320;9.456;2023-01-10T00:09:16;98754.63;;;4.77;93.94
70982;BME280;58640;51.320;9.456;2023-01-10T00:11:43;98761.94;;;4.75;93.97
70982;BME280;58640;51.320;9.456;2023-01-10T00:14:27;98764.88;;;4.89;93.73
70982;BME280;58640;51.320;9.456;2023-01-10T00:17:06;98772.94;;;4.97;93.59
70982;BME280;58640;51.320;9.456;2023-01-10T00:19:40;98777.63;;;5.03;93.84
70982;BME280;58640;51.320;9.456;2023-01-10T00:22:05;98785.03;;;4.92;93.87
70982;BME280;58640;51.320;9.456;2023-01-10T00:24:33;98778.16;;;4.81;95.03
70982;BME280;58640;51.320;9.456;2023-01-10T00:26:59;98788.16;;;4.87;94.96
70982;BME280;58640;51.320;9.456;2023-01-10T00:29:28;98795.03;;;4.90;95.25
70982;BME280;58640;51.320;9.456;2023-01-10T00:31:56;98797.75;;;4.98;95.09
70982;BME280;58640;51.320;9.456;2023-01-10T00:38:48;98792.75;;;5.03;95.70
70982;BME280;58640;51.320;9.456;2023-01-10T00:41:09;98807.94;;;5.02;96.45
70982;BME280;58640;51.320;9.456;2023-01-10T00:43:54;98803.69;;;4.92;97.28
70982;BME280;58640;51.320;9.456;2023-01-10T00:46:25;98816.03;;;4.93;97.45
70982;BME280;58640;51.320;9.456;2023-01-10T00:48:53;98822.81;;;4.87;98.29
70982;BME280;58640;51.320;9.456;2023-01-10T00:51:21;98831.81;;;4.86;98.46
70982;BME280;58640;51.320;9.456;2023-01-10T00:53:46;98842.22;;;4.97;98.07
70982;BME280;58640;51.320;9.456;2023-01-10T00:56:14;98839.00;;;4.94;98.41
70982;BME280;58640;51.320;9.456;2023-01-10T00:58:42;98850.16;;;4.89;98.78
70982;BME280;58640;51.320;9.456;2023-01-10T01:01:09;98859.56;;;5.01;98.58
70982;BME280;58640;51.320;9.456;2023-01-10T01:03:36;98857.56;;;5.03;97.85
70982;BME280;58640;51.320;9.456;2023-01-10T01:06:05;98871.69;;;4.96;98.63
70982;BME280;58640;51.320;9.456;2023-01-10T01:08:33;98880.88;;;5.01;98.84
70982;BME280;58640;51.320;9.456;2023-01-10T01:10:59;98887.75;;;5.04;98.84
70982;BME280;58640;51.320;9.456;2023-01-10T01:13:24;98903.88;;;5.02;99.11
70982;BME280;58640;51.320;9.456;2023-01-10T01:15:52;98902.03;;;5.03;99.38
70982;BME280;58640;51.320;9.456;2023-01-10T01:18:25;98915.69;;;5.00;99.82
70982;BME280;58640;51.320;9.456;2023-01-10T01:21:01;98921.00;;;5.00;100.00
70982;BME280;58640;51.320;9.456;2023-01-10T01:23:29;98929.69;;;5.02;100.00
70982;BME280;58640;51.320;9.456;2023-01-10T01:25:55;98930.69;;;5.01;100.00
70982;BME280;58640;51.320;9.456;2023-01-10T01:28:21;98935.19;;;5.00;100.00
70982;BME280;58640;51.320;9.456;2023-01-10T01:30:47;98944.69;;;5.03;100.00
70982;BME280;58640;51.320;9.456;2023-01-10T01:33:16;98950.56;;;5.06;100.00
70982;BME280;58640;51.320;9.456;2023-01-10T01:35:46;98951.41;;;5.07;100.00
70982;BME280;58640;51.320;9.456;2023-01-10T01:38:13;98947.06;;;5.06;100.00
70982;BME280;58640;51.320;9.456;2023-01-10T01:40:41;98946.53;;;5.02;100.00
70982;BME280;58640;51.320;9.456;2023-01-10T01:43:27;98954.84;;;5.17;100.00
70982;BME280;58640;51.320;9.456;2023-01-10T01:45:54;98963.56;;;5.09;100.00
70982;BME280;58640;51.320;9.456;2023-01-10T01:48:38;98969.22;;;5.06;100.00
70982;BME280;58640;51.320;9.456;2023-01-10T01:53:45;98978.22;;;5.05;100.00
70982;BME280;58640;51.320;9.456;2023-01-10T01:56:22;98992.50;;;5.04;100.00
70982;BME280;58640;51.320;9.456;2023-01-10T01:59:02;98987.16;;;5.04;100.00
70982;BME280;58640;51.320;9.456;2023-01-10T02:01:29;99000.22;;;5.07;100.00
70982;BME280;58640;51.320;9.456;2023-01-10T02:04:02;99002.66;;;5.01;100.00
70982;BME280;58640;51.320;9.456;2023-01-10T02:06:31;99009.88;;;5.08;100.00
70982;BME280;58640;51.320;9.456;2023-01-10T02:11:54;99019.47;;;5.01;100.00
70982;BME280;58640;51.320;9.456;2023-01-10T02:14:22;99009.03;;;5.25;96.74
70982;BME280;58640;51.320;9.456;2023-01-10T02:16:51;99009.56;;;5.29;96.97
70982;BME280;58640;51.320;9.456;2023-01-10T02:25:25;99021.63;;;5.33;92.96
70982;BME280;58640;51.320;9.456;2023-01-10T02:28:04;99038.13;;;5.54;91.72
70982;BME280;58640;51.320;9.456;2023-01-10T02:33:28;99042.34;;;5.39;92.95
70982;BME280;58640;51.320;9.456;2023-01-10T02:44:09;99052.38;;;5.10;94.63
70982;BME280;58640;51.320;9.456;2023-01-10T02:46:37;99055.13;;;5.35;94.27
70982;BME280;58640;51.320;9.456;2023-01-10T02:49:03;99049.13;;;5.33;92.17
70982;BME280;58640;51.320;9.456;2023-01-10T02:51:30;99051.69;;;5.08;93.69
70982;BME280;58640;51.320;9.456;2023-01-10T02:54:22;99063.00;;;4.92;95.11
70982;BME280;58640;51.320;9.456;2023-01-10T03:02:17;99075.59;;;5.00;94.38
70982;BME280;58640;51.320;9.456;2023-01-10T03:07:29;99080.81;;;4.65;96.42
70982;BME280;58640;51.320;9.456;2023-01-10T03:10:32;99090.25;;;4.59;96.89
70982;BME280;58640;51.320;9.456;2023-01-10T03:13:07;99092.06;;;4.59;97.16
70982;BME280;58640;51.320;9.456;2023-01-10T03:15:36;99095.72;;;4.58;97.70
70982;BME280;58640;51.320;9.456;2023-01-10T03:18:09;99102.34;;;4.44;97.73
70982;BME280;58640;51.320;9.456;2023-01-10T03:20:37;99100.72;;;4.33;97.80
70982;BME280;58640;51.320;9.456;2023-01-10T03:23:07;99108.00;;;4.31;97.72
70982;BME280;58640;51.320;9.456;2023-01-10T03:25:35;99108.00;;;4.31;98.39
70982;BME280;58640;51.320;9.456;2023-01-10T03:28:06;99106.09;;;4.61;94.26
70982;BME280;58640;51.320;9.456;2023-01-10T03:30:44;99122.44;;;4.38;96.01
70982;BME280;58640;51.320;9.456;2023-01-10T03:33:12;99128.63;;;4.20;97.48
70982;BME280;58640;51.320;9.456;2023-01-10T03:36:16;99127.00;;;4.56;94.98
70982;BME280;58640;51.320;9.456;2023-01-10T03:39:38;99139.25;;;4.29;95.66
70982;BME280;58640;51.320;9.456;2023-01-10T03:45:00;99153.97;;;4.33;94.64
70982;BME280;58640;51.320;9.456;2023-01-10T03:47:38;99162.41;;;4.19;95.71
70982;BME280;58640;51.320;9.456;2023-01-10T03:50:14;99162.81;;;4.05;96.74
70982;BME280;58640;51.320;9.456;2023-01-10T03:52:53;99172.78;;;4.03;97.23
70982;BME280;58640;51.320;9.456;2023-01-10T03:55:27;99181.31;;;3.97;97.53
70982;BME280;58640;51.320;9.456;2023-01-10T03:58:01;99175.44;;;3.94;98.35
70982;BME280;58640;51.320;9.456;2023-01-10T04:00:26;99186.63;;;4.07;97.83
70982;BME280;58640;51.320;9.456;2023-01-10T04:02:52;99181.69;;;4.40;96.03
70982;BME280;58640;51.320;9.456;2023-01-10T04:05:22;99191.50;;;4.49;94.34
70982;BME280;58640;51.320;9.456;2023-01-10T04:07:50;99191.06;;;4.44;95.39
70982;BME280;58640;51.320;9.456;2023-01-10T04:10:15;99197.41;;;4.43;95.63
70982;BME280;58640;51.320;9.456;2023-01-10T04:12:41;99197.41;;;4.43;96.39
70982;BME280;58640;51.320;9.456;2023-01-10T04:15:10;99199.50;;;4.40;96.91
70982;BME280;58640;51.320;9.456;2023-01-10T04:17:38;99210.44;;;4.37;97.30
70982;BME280;58640;51.320;9.456;2023-01-10T04:20:13;99213.34;;;4.34;97.11
70982;BME280;58640;51.320;9.456;2023-01-10T04:22:39;99213.91;;;4.37;97.47
70982;BME280;58640;51.320;9.456;2023-01-10T04:25:14;99227.38;;;4.26;97.67
70982;BME280;58640;51.320;9.456;2023-01-10T04:27:42;99229.75;;;4.20;97.37
70982;BME280;58640;51.320;9.456;2023-01-10T04:30:08;99233.72;;;4.16;97.50
70982;BME280;58640;51.320;9.456;2023-01-10T04:32:42;99242.25;;;4.10;97.75
70982;BME280;58640;51.320;9.456;2023-01-10T04:35:10;99244.63;;;4.22;97.33
70982;BME280;58640;51.320;9.456;2023-01-10T04:37:46;99249.09;;;4.22;96.50
70982;BME280;58640;51.320;9.456;2023-01-10T04:40:24;99256.94;;;4.14;97.04
70982;BME280;58640;51.320;9.456;2023-01-10T04:42:50;99256.81;;;4.06;97.98
70982;BME280;58640;51.320;9.456;2023-01-10T04:45:15;99257.81;;;4.05;98.04
70982;BME280;58640;51.320;9.456;2023-01-10T04:47:51;99270.69;;;4.00;98.56
70982;BME280;58640;51.320;9.456;2023-01-10T04:50:17;99271.78;;;4.07;97.70
70982;BME280;58640;51.320;9.456;2023-01-10T04:52:45;99275.16;;;4.09;97.90
70982;BME280;58640;51.320;9.456;2023-01-10T04:55:10;99269.69;;;4.39;96.34
70982;BME280;58640;51.320;9.456;2023-01-10T04:57:36;99279.25;;;4.22;96.43
70982;BME280;58640;51.320;9.456;2023-01-10T05:00:01;99284.00;;;4.19;96.98
70982;BME280;58640;51.320;9.456;2023-01-10T05:02:29;99288.75;;;4.25;96.87
70982;BME280;58640;51.320;9.456;2023-01-10T05:04:54;99292.41;;;4.14;97.35
70982;BME280;58640;51.320;9.456;2023-01-10T05:07:20;99291.13;;;4.18;96.72
70982;BME280;58640;51.320;9.456;2023-01-10T05:09:45;99304.16;;;4.12;97.45
70982;BME280;58640;51.320;9.456;2023-01-10T05:12:13;99314.78;;;4.12;97.33
70982;BME280;58640;51.320;9.456;2023-01-10T05:14:41;99305.56;;;4.25;97.09
70982;BME280;58640;51.320;9.456;2023-01-10T05:17:06;99307.81;;;4.30;96.34
70982;BME280;58640;51.320;9.456;2023-01-10T05:19:32;99304.16;;;4.21;96.23
70982;BME280;58640;51.320;9.456;2023-01-10T05:21:57;99308.09;;;4.17;96.15
70982;BME280;58640;51.320;9.456;2023-01-10T05:24:22;99299.13;;;4.28;94.97
70982;BME280;58640;51.320;9.456;2023-01-10T05:26:48;99313.13;;;4.20;95.68
70982;BME280;58640;51.320;9.456;2023-01-10T05:29:13;99310.75;;;4.08;96.02
70982;BME280;58640;51.320;9.456;2023-01-10T05:31:39;99314.75;;;3.93;96.87
70982;BME280;58640;51.320;9.456;2023-01-10T05:34:05;99311.25;;;3.83;97.56
70982;BME280;58640;51.320;9.456;2023-01-10T05:36:30;99323.69;;;3.73;98.46
70982;BME280;58640;51.320;9.456;2023-01-10T05:38:56;99334.47;;;3.71;98.66
70982;BME280;58640;51.320;9.456;2023-01-10T05:41:23;99327.19;;;3.73;98.05
70982;BME280;58640;51.320;9.456;2023-01-10T05:43:49;99341.72;;;3.69;98.39
70982;BME280;58640;51.320;9.456;2023-01-10T05:46:14;99347.91;;;3.70;99.10
70982;BME280;58640;51.320;9.456;2023-01-10T05:48:40;99358.97;;;3.75;98.84
70982;BME280;58640;51.320;9.456;2023-01-10T05:51:06;99364.16;;;3.76;99.13
70982;BME280;58640;51.320;9.456;2023-01-10T05:53:31;99371.59;;;3.82;99.44
70982;BME280;58640;51.320;9.456;2023-01-10T05:55:59;99383.28;;;4.00;97.77
70982;BME280;58640;51.320;9.456;2023-01-10T05:58:25;99387.72;;;3.90;97.61
70982;BME280;58640;51.320;9.456;2023-01-10T06:00:51;99390.09;;;3.84;98.13
70982;BME280;58640;51.320;9.456;2023-01-10T06:03:18;99393.69;;;3.73;98.50
70982;BME280;58640;51.320;9.456;2023-01-10T06:05:43;99399.97;;;3.72;98.90
70982;BME280;58640;51.320;9.456;2023-01-10T06:08:09;99400.09;;;3.71;99.29
70982;BME280;58640;51.320;9.456;2023-01-10T06:10:34;99402.50;;;3.74;99.11
70982;BME280;58640;51.320;9.456;2023-01-10T06:13:00;99404.41;;;3.62;99.42
70982;BME280;58640;51.320;9.456;2023-01-10T06:15:25;99409.13;;;3.49;99.90
70982;BME280;58640;51.320;9.456;2023-01-10T06:17:50;99410.06;;;3.48;100.00
70982;BME280;58640;51.320;9.456;2023-01-10T06:20:16;99405.03;;;3.45;100.00
70982;BME280;58640;51.320;9.456;2023-01-10T06:22:42;99397.63;;;3.49;100.00
70982;BME280;58640;51.320;9.456;2023-01-10T06:25:09;99399.44;;;3.48;100.00
70982;BME280;58640;51.320;9.456;2023-01-10T06:27:34;99407.41;;;3.48;99.88
70982;BME280;58640;51.320;9.456;2023-01-10T06:30:00;99413.00;;;3.45;100.00
70982;BME280;58640;51.320;9.456;2023-01-10T06:32:26;99421.13;;;3.44;100.00
70982;BME280;58640;51.320;9.456;2023-01-10T06:34:51;99430.34;;;3.40;100.00
70982;BME280;58640;51.320;9.456;2023-01-10T06:37:17;99426.63;;;3.52;100.00
70982;BME280;58640;51.320;9.456;2023-01-10T06:39:43;99441.44;;;3.54;99.95
70982;BME280;58640;51.320;9.456;2023-01-10T06:42:10;99443.16;;;3.55;100.00
70982;BME280;58640;51.320;9.456;2023-01-10T06:44:36;99446.44;;;3.68;99.78
70982;BME280;58640;51.320;9.456;2023-01-10T06:47:01;99451.50;;;3.71;99.39
70982;BME280;58640;51.320;9.456;2023-01-10T06:49:26;99446.91;;;3.73;99.65
70982;BME280;58640;51.320;9.456;2023-01-10T06:51:52;99454.94;;;3.83;99.57
70982;BME280;58640;51.320;9.456;2023-01-10T06:54:17;99456.59;;;3.84;98.41
70982;BME280;58640;51.320;9.456;2023-01-10T06:56:43;99472.44;;;3.85;98.52
70982;BME280;58640;51.320;9.456;2023-01-10T06:59:08;99477.94;;;3.93;98.29
70982;BME280;58640;51.320;9.456;2023-01-10T07:01:33;99479.88;;;3.91;97.64
70982;BME280;58640;51.320;9.456;2023-01-10T07:03:59;99477.06;;;3.93;97.36
70982;BME280;58640;51.320;9.456;2023-01-10T07:06:24;99479.56;;;3.85;98.15
70982;BME280;58640;51.320;9.456;2023-01-10T07:08:50;99476.91;;;3.85;98.23
70982;BME280;58640;51.320;9.456;2023-01-10T07:11:15;99492.41;;;4.00;96.83
70982;BME280;58640;51.320;9.456;2023-01-10T07:13:41;99493.22;;;4.01;96.98
70982;BME280;58640;51.320;9.456;2023-01-10T07:16:12;99485.97;;;4.03;97.15
70982;BME280;58640;51.320;9.456;2023-01-10T07:18:39;99490.28;;;4.04;97.37
70982;BME280;58640;51.320;9.456;2023-01-10T07:21:05;99486.84;;;4.13;96.43
70982;BME280;58640;51.320;9.456;2023-01-10T07:23:35;99493.53;;;4.07;96.66
70982;BME280;58640;51.320;9.456;2023-01-10T07:26:03;99496.59;;;4.03;97.40
70982;BME280;58640;51.320;9.456;2023-01-10T07:28:29;99500.63;;;4.27;95.67
70982;BME280;58640;51.320;9.456;2023-01-10T07:31:04;99510.84;;;4.22;95.97
70982;BME280;58640;51.320;9.456;2023-01-10T07:33:57;99517.53;;;4.17;96.59
70982;BME280;58640;51.320;9.456;2023-01-10T07:36:31;99515.31;;;4.22;95.91
70982;BME280;58640;51.320;9.456;2023-01-10T07:38:56;99513.59;;;4.11;96.85
70982;BME280;58640;51.320;9.456;2023-01-10T07:41:22;99523.75;;;4.27;96.24
70982;BME280;58640;51.320;9.456;2023-01-10T07:44:28;99521.66;;;4.30;95.57
70982;BME280;58640;51.320;9.456;2023-01-10T10:37:49;99660.19;;;5.87;86.19
70982;BME280;58640;51.320;9.456;2023-01-10T10:40:23;99668.16;;;5.78;86.70
70982;BME280;58640;51.320;9.456;2023-01-10T10:42:55;99664.84;;;6.05;86.13
70982;BME280;58640;51.320;9.456;2023-01-10T10:45:41;99664.94;;;6.32;84.26
70982;BME280;58640;51.320;9.456;2023-01-10T10:51:03;99671.31;;;6.58;82.89
70982;BME280;58640;51.320;9.456;2023-01-10T10:53:32;99670.03;;;6.71;82.82
70982;BME280;58640;51.320;9.456;2023-01-10T10:55:58;99669.63;;;6.66;81.54
70982;BME280;58640;51.320;9.456;2023-01-10T10:58:24;99658.22;;;6.64;82.00
70982;BME280;58640;51.320;9.456;2023-01-10T11:00:50;99661.91;;;6.63;81.50
70982;BME280;58640;51.320;9.456;2023-01-10T11:03:37;99671.66;;;6.82;80.69
70982;BME280;58640;51.320;9.456;2023-01-10T11:06:07;99669.34;;;6.69;80.85
70982;BME280;58640;51.320;9.456;2023-01-10T11:08:36;99666.78;;;6.77;80.27
70982;BME280;58640;51.320;9.456;2023-01-10T11:11:14;99651.50;;;6.60;79.77
70982;BME280;58640;51.320;9.456;2023-01-10T11:13:59;99657.50;;;6.72;80.31
70982;BME280;58640;51.320;9.456;2023-01-10T11:16:28;99666.78;;;6.77;80.38
70982;BME280;58640;51.320;9.456;2023-01-10T11:19:21;99662.91;;;6.89;79.40
70982;BME280;58640;51.320;9.456;2023-01-10T11:24:25;99663.69;;;6.72;79.69
70982;BME280;58640;51.320;9.456;2023-01-10T11:26:51;99664.88;;;6.60;80.31
70982;BME280;58640;51.320;9.456;2023-01-10T11:32:08;99670.63;;;6.65;79.98
70982;BME280;58640;51.320;9.456;2023-01-10T11:34:39;99666.88;;;6.85;79.45
70982;BME280;58640;51.320;9.456;2023-01-10T11:37:19;99675.91;;;6.84;79.17
70982;BME280;58640;51.320;9.456;2023-01-10T11:39:45;99668.50;;;6.96;79.39
70982;BME280;58640;51.320;9.456;2023-01-10T11:44:47;99665.50;;;6.72;79.71
70982;BME280;58640;51.320;9.456;2023-01-10T11:47:13;99672.94;;;6.87;78.76
70982;BME280;58640;51.320;9.456;2023-01-10T11:49:41;99668.16;;;6.81;78.58
70982;BME280;58640;51.320;9.456;2023-01-10T11:52:22;99673.94;;;6.77;78.79
70982;BME280;58640;51.320;9.456;2023-01-10T11:54:49;99668.28;;;6.80;78.76
70982;BME280;58640;51.320;9.456;2023-01-10T11:57:17;99663.41;;;6.75;78.93
70982;BME280;58640;51.320;9.456;2023-01-10T11:59:59;99664.09;;;6.77;80.02
70982;BME280;58640;51.320;9.456;2023-01-10T12:04:51;99663.69;;;6.72;80.21
70982;BME280;58640;51.320;9.456;2023-01-10T12:07:18;99663.59;;;6.55;82.33
70982;BME280;58640;51.320;9.456;2023-01-10T12:10:00;99665.84;;;6.59;82.23
70982;BME280;58640;51.320;9.456;2023-01-10T12:12:30;99669.69;;;6.38;84.07
70982;BME280;58640;51.320;9.456;2023-01-10T12:14:59;99666.44;;;6.44;84.07
70982;BME280;58640;51.320;9.456;2023-01-10T12:17:38;99658.91;;;6.20;85.08
70982;BME280;58640;51.320;9.456;2023-01-10T12:20:11;99660.84;;;6.28;84.80
70982;BME280;58640;51.320;9.456;2023-01-10T12:22:39;99662.00;;;6.25;84.74
70982;BME280;58640;51.320;9.456;2023-01-10T12:27:46;99656.94;;;6.22;84.25
70982;BME280;58640;51.320;9.456;2023-01-10T12:30:36;99654.53;;;6.19;84.48
70982;BME280;58640;51.320;9.456;2023-01-10T12:33:10;99662.97;;;6.24;84.45
70982;BME280;58640;51.320;9.456;2023-01-10T12:35:42;99663.81;;;6.15;85.09
70982;BME280;58640;51.320;9.456;2023-01-10T12:38:39;99664.38;;;6.28;83.33
70982;BME280;58640;51.320;9.456;2023-01-10T12:44:33;99663.81;;;6.25;83.18
70982;BME280;58640;51.320;9.456;2023-01-10T12:55:30;99646.09;;;6.33;82.65
70982;BME280;58640;51.320;9.456;2023-01-10T12:58:03;99661.56;;;6.30;82.49
70982;BME280;58640;51.320;9.456;2023-01-10T13:00:35;99646.94;;;6.24;81.52
70982;BME280;58640;51.320;9.456;2023-01-10T13:03:12;99649.31;;;6.27;81.31
70982;BME280;58640;51.320;9.456;2023-01-10T13:05:40;99657.50;;;6.16;82.25
70982;BME280;58640;51.320;9.456;2023-01-10T13:08:10;99666.94;;;6.01;81.89
70982;BME280;58640;51.320;9.456;2023-01-10T13:10:40;99655.06;;;6.32;80.90
70982;BME280;58640;51.320;9.456;2023-01-10T13:19:00;99659.13;;;6.46;80.65
70982;BME280;58640;51.320;9.456;2023-01-10T13:21:26;99653.38;;;6.41;80.17
70982;BME280;58640;51.320;9.456;2023-01-10T13:23:53;99663.50;;;6.37;80.95
70982;BME280;58640;51.320;9.456;2023-01-10T13:26:21;99661.69;;;6.28;80.60
70982;BME280;58640;51.320;9.456;2023-01-10T13:28:54;99671.09;;;6.32;80.35
70982;BME280;58640;51.320;9.456;2023-01-10T13:31:32;99673.78;;;6.23;81.22
70982;BME280;58640;51.320;9.456;2023-01-10T13:36:38;99680.13;;;6.31;80.26
70982;BME280;58640;51.320;9.456;2023-01-10T13:39:06;99663.41;;;6.20;79.72
70982;BME280;58640;51.320;9.456;2023-01-10T13:52:52;99662.16;;;6.05;80.53
70982;BME280;58640;51.320;9.456;2023-01-10T13:55:48;99656.53;;;6.08;80.67
70982;BME280;58640;51.320;9.456;2023-01-10T14:01:22;99665.66;;;5.95;81.17
70982;BME280;58640;51.320;9.456;2023-01-10T14:04:24;99671.13;;;6.13;80.65
70982;BME280;58640;51.320;9.456;2023-01-10T14:09:49;99650.34;;;6.07;79.57
70982;BME280;58640;51.320;9.456;2023-01-10T14:12:25;99646.69;;;5.98;80.55
70982;BME280;58640;51.320;9.456;2023-01-10T14:15:06;99646.66;;;6.08;80.08
70982;BME280;58640;51.320;9.456;2023-01-10T14:17:34;99641.94;;;5.83;81.23
70982;BME280;58640;51.320;9.456;2023-01-10T14:22:39;99644.16;;;5.87;80.91
70982;BME280;58640;51.320;9.456;2023-01-10T14:25:16;99629.28;;;5.94;80.64
70982;BME280;58640;51.320;9.456;2023-01-10T14:27:46;99629.00;;;5.88;79.95
70982;BME280;58640;51.320;9.456;2023-01-10T14:30:21;99617.91;;;5.83;80.21
70982;BME280;58640;51.320;9.456;2023-01-10T14:32:50;99615.34;;;6.01;79.73
70982;BME280;58640;51.320;9.456;2023-01-10T14:35:20;99614.22;;;5.84;80.31
70982;BME280;58640;51.320;9.456;2023-01-10T14:37:56;99606.22;;;5.84;79.99
70982;BME280;58640;51.320;9.456;2023-01-10T14:40:39;99603.00;;;5.90;79.31
70982;BME280;58640;51.320;9.456;2023-01-10T14:43:14;99604.41;;;5.94;79.45
70982;BME280;58640;51.320;9.456;2023-01-10T14:45:56;99596.81;;;5.70;79.42
70982;BME280;58640;51.320;9.456;2023-01-10T14:48:28;99603.00;;;5.52;80.96
70982;BME280;58640;51.320;9.456;2023-01-10T14:51:23;99601.00;;;5.54;80.09
70982;BME280;58640;51.320;9.456;2023-01-10T15:01:50;99582.91;;;5.48;79.32
70982;BME280;58640;51.320;9.456;2023-01-10T15:04:18;99587.53;;;5.65;78.63
70982;BME280;58640;51.320;9.456;2023-01-10T15:07:00;99584.03;;;5.55;78.86
70982;BME280;58640;51.320;9.456;2023-01-10T15:09:30;99583.34;;;5.53;78.51
70982;BME280;58640;51.320;9.456;2023-01-10T15:12:02;99579.00;;;5.52;78.32
70982;BME280;58640;51.320;9.456;2023-01-10T15:14:29;99574.91;;;5.38;78.49
70982;BME280;58640;51.320;9.456;2023-01-10T15:16:58;99574.75;;;5.30;78.64
70982;BME280;58640;51.320;9.456;2023-01-10T15:19:29;99562.84;;;5.25;78.58
70982;BME280;58640;51.320;9.456;2023-01-10T15:21:56;99557.75;;;5.22;78.09
70982;BME280;58640;51.320;9.456;2023-01-10T15:24:30;99555.50;;;5.27;76.99
70982;BME280;58640;51.320;9.456;2023-01-10T15:26:58;99561.00;;;5.25;77.09
70982;BME280;58640;51.320;9.456;2023-01-10T15:29:25;99555.38;;;5.28;77.03
70982;BME280;58640;51.320;9.456;2023-01-10T15:31:52;99556.38;;;5.18;76.91
70982;BME280;58640;51.320;9.456;2023-01-10T15:34:22;99559.72;;;5.10;77.06
70982;BME280;58640;51.320;9.456;2023-01-10T15:36:53;99559.59;;;5.12;77.33
70982;BME280;58640;51.320;9.456;2023-01-10T15:39:25;99557.56;;;4.95;77.84
70982;BME280;58640;51.320;9.456;2023-01-10T15:42:00;99546.09;;;4.94;77.86
70982;BME280;58640;51.320;9.456;2023-01-10T15:47:05;99549.44;;;4.87;77.88
70982;BME280;58640;51.320;9.456;2023-01-10T15:49:53;99556.03;;;4.92;77.59
70982;BME280;58640;51.320;9.456;2023-01-10T15:52:22;99550.84;;;4.91;77.69
70982;BME280;58640;51.320;9.456;2023-01-10T15:54:47;99552.50;;;4.82;77.77
70982;BME280;58640;51.320;9.456;2023-01-10T15:57:28;99550.00;;;4.90;78.04
70982;BME280;58640;51.320;9.456;2023-01-10T15:59:57;99550.97;;;4.80;78.14
70982;BME280;58640;51.320;9.456;2023-01-10T16:02:32;99544.94;;;4.87;77.89
70982;BME280;58640;51.320;9.456;2023-01-10T16:05:08;99547.44;;;4.70;79.06
70982;BME280;58640;51.320;9.456;2023-01-10T16:07:41;99535.91;;;4.69;78.70
70982;BME280;58640;51.320;9.456;2023-01-10T16:10:16;99529.59;;;4.61;78.99
70982;BME280;58640;51.320;9.456;2023-01-10T16:12:43;99535.69;;;4.72;78.86
70982;BME280;58640;51.320;9.456;2023-01-10T16:15:29;99535.09;;;4.69;78.98
70982;BME280;58640;51.320;9.456;2023-01-10T16:17:55;99536.50;;;4.73;78.57
70982;BME280;58640;51.320;9.456;2023-01-10T16:20:41;99529.59;;;4.61;79.16
70982;BME280;58640;51.320;9.456;2023-01-10T16:23:20;99527.25;;;4.67;79.17
70982;BME280;58640;51.320;9.456;2023-01-10T16:25:49;99527.25;;;4.67;79.46
70982;BME280;58640;51.320;9.456;2023-01-10T16:28:16;99520.22;;;4.76;78.97
70982;BME280;58640;51.320;9.456;2023-01-10T16:30:42;99517.69;;;4.65;79.48
70982;BME280;58640;51.320;9.456;2023-01-10T16:33:20;99518.53;;;4.65;79.82
70982;BME280;58640;51.320;9.456;2023-01-10T16:35:51;99522.88;;;4.66;79.88
70982;BME280;58640;51.320;9.456;2023-01-10T16:38:18;99519.22;;;4.58;80.31
70982;BME280;58640;51.320;9.456;2023-01-10T16:40:47;99525.53;;;4.66;80.45
70982;BME280;58640;51.320;9.456;2023-01-10T16:43:13;99519.41;;;4.66;80.65
70982;BME280;58640;51.320;9.456;2023-01-10T16:45:53;99518.25;;;4.68;80.87
70982;BME280;58640;51.320;9.456;2023-01-10T16:48:24;99510.03;;;4.90;79.75
70982;BME280;58640;51.320;9.456;2023-01-10T16:50:49;99506.94;;;4.85;80.53
70982;BME280;58640;51.320;9.456;2023-01-10T16:53:16;99505.25;;;4.94;80.50
70982;BME280;58640;51.320;9.456;2023-01-10T16:55:45;99509.84;;;4.73;81.64
70982;BME280;58640;51.320;9.456;2023-01-10T16:58:12;99507.75;;;4.76;81.78
70982;BME280;58640;51.320;9.456;2023-01-10T17:00:39;99501.72;;;4.84;81.63
70982;BME280;58640;51.320;9.456;2023-01-10T17:03:07;99492.50;;;4.88;81.76
70982;BME280;58640;51.320;9.456;2023-01-10T17:05:36;99492.22;;;4.81;82.92
70982;BME280;58640;51.320;9.456;2023-01-10T17:08:02;99483.66;;;4.97;81.48
70982;BME280;58640;51.320;9.456;2023-01-10T17:10:29;99483.09;;;4.84;82.27
70982;BME280;58640;51.320;9.456;2023-01-10T17:12:56;99482.78;;;4.77;82.90
70982;BME280;58640;51.320;9.456;2023-01-10T17:15:22;99481.28;;;4.94;81.99
70982;BME280;58640;51.320;9.456;2023-01-10T17:17:47;99474.28;;;4.83;82.69
70982;BME280;58640;51.320;9.456;2023-01-10T17:20:14;99471.88;;;4.80;82.66
70982;BME280;58640;51.320;9.456;2023-01-10T17:22:40;99471.19;;;4.97;82.24
70982;BME280;58640;51.320;9.456;2023-01-10T17:25:08;99473.84;;;5.07;81.45
70982;BME280;58640;51.320;9.456;2023-01-10T17:27:36;99456.88;;;4.98;81.81
70982;BME280;58640;51.320;9.456;2023-01-10T17:30:02;99463.91;;;4.99;81.58
70982;BME280;58640;51.320;9.456;2023-01-10T17:32:28;99461.47;;;4.87;82.06
70982;BME280;58640;51.320;9.456;2023-01-10T17:34:53;99455.34;;;4.86;82.03
70982;BME280;58640;51.320;9.456;2023-01-10T17:37:18;99460.09;;;4.92;81.71
70982;BME280;58640;51.320;9.456;2023-01-10T17:39:44;99440.31;;;5.04;80.95
70982;BME280;58640;51.320;9.456;2023-01-10T17:42:09;99453.50;;;4.87;81.89
70982;BME280;58640;51.320;9.456;2023-01-10T17:44:34;99450.00;;;4.96;81.50
70982;BME280;58640;51.320;9.456;2023-01-10T17:47:00;99443.13;;;5.03;81.38
70982;BME280;58640;51.320;9.456;2023-01-10T17:49:27;99452.81;;;4.94;81.78
70982;BME280;58640;51.320;9.456;2023-01-10T17:51:52;99449.72;;;4.89;82.06
70982;BME280;58640;51.320;9.456;2023-01-10T17:54:19;99445.50;;;4.87;82.26
70982;BME280;58640;51.320;9.456;2023-01-10T17:56:45;99443.53;;;4.89;82.28
70982;BME280;58640;51.320;9.456;2023-01-10T17:59:10;99436.25;;;4.91;82.24
70982;BME280;58640;51.320;9.456;2023-01-10T18:01:35;99442.28;;;4.83;82.79
70982;BME280;58640;51.320;9.456;2023-01-10T18:04:03;99436.09;;;4.83;82.43